sensor_id;sensor_type;location;lat;lon;timestamp;temperature;humidity
78696;SHT31;68030;51.980;5.646;2023-05-10T00:02:16;17.0;71.2
78696;SHT31;68030;51.980;5.646;2023-05-10T00:04:45;17.0;71.4
78696;SHT31;68030;51.980;5.646;2023-05-10T00:07:15;17.0;71.2
78696;SHT31;68030;51.980;5.646;2023-05-10T00:09:45;17.0;71.5
78696;SHT31;68030;51.980;5.646;2023-05-10T00:12:15;17.0;71.2
78696;SHT31;68030;51.980;5.646;2023-05-10T00:14:44;17.0;71.1
78696;SHT31;68030;51.980;5.646;2023-05-10T00:17:14;17.0;71.3
78696;SHT31;68030;51.980;5.646;2023-05-10T00:19:44;17.0;71.1
78696;SHT31;68030;51.980;5.646;2023-05-10T00:22:13;17.0;71.3
78696;SHT31;68030;51.980;5.646;2023-05-10T00:24:43;17.0;71.5
78696;SHT31;68030;51.980;5.646;2023-05-10T00:27:12;17.0;71.7
78696;SHT31;68030;51.980;5.646;2023-05-10T00:29:42;17.0;71.4
78696;SHT31;68030;51.980;5.646;2023-05-10T00:32:12;17.0;71.4
78696;SHT31;68030;51.980;5.646;2023-05-10T00:34:42;17.0;71.3
78696;SHT31;68030;51.980;5.646;2023-05-10T00:37:11;17.0;71.2
78696;SHT31;68030;51.980;5.646;2023-05-10T00:39:42;17.0;71.3
78696;SHT31;68030;51.980;5.646;2023-05-10T00:42:11;17.0;71.1
78696;SHT31;68030;51.980;5.646;2023-05-10T00:44:41;17.0;71.1
78696;SHT31;68030;51.980;5.646;2023-05-10T00:47:11;17.0;71.1
78696;SHT31;68030;51.980;5.646;2023-05-10T00:49:41;17.0;71.1
78696;SHT31;68030;51.980;5.646;2023-05-10T00:52:11;17.0;71.3
78696;SHT31;68030;51.980;5.646;2023-05-10T00:54:42;17.0;71.4
78696;SHT31;68030;51.980;5.646;2023-05-10T00:57:14;17.0;71.3
78696;SHT31;68030;51.980;5.646;2023-05-10T00:59:45;17.0;71.4
78696;SHT31;68030;51.980;5.646;2023-05-10T01:02:15;17.0;71.4
78696;SHT31;68030;51.980;5.646;2023-05-10T01:04:47;17.0;71.3
78696;SHT31;68030;51.980;5.646;2023-05-10T01:07:19;17.0;71.5
78696;SHT31;68030;51.980;5.646;2023-05-10T01:09:51;17.0;71.7
78696;SHT31;68030;51.980;5.646;2023-05-10T01:12:21;17.0;71.6
78696;SHT31;68030;51.980;5.646;2023-05-10T01:14:51;17.0;71.7
78696;SHT31;68030;51.980;5.646;2023-05-10T01:17:22;17.0;71.9
78696;SHT31;68030;51.980;5.646;2023-05-10T01:19:54;17.0;71.8
78696;SHT31;68030;51.980;5.646;2023-05-10T01:22:48;17.1;71.6
78696;SHT31;68030;51.980;5.646;2023-05-10T01:25:40;17.1;71.7
78696;SHT31;68030;51.980;5.646;2023-05-10T01:28:50;17.1;71.5
78696;SHT31;68030;51.980;5.646;2023-05-10T01:31:54;17.1;71.2
78696;SHT31;68030;51.980;5.646;2023-05-10T01:34:29;17.1;71.5
78696;SHT31;68030;51.980;5.646;2023-05-10T01:37:07;17.1;71.3
78696;SHT31;68030;51.980;5.646;2023-05-10T01:39:46;17.1;71.3
78696;SHT31;68030;51.980;5.646;2023-05-10T01:42:23;17.1;71.2
78696;SHT31;68030;51.980;5.646;2023-05-10T01:45:02;17.1;71.1
78696;SHT31;68030;51.980;5.646;2023-05-10T01:47:38;17.1;71.0
78696;SHT31;68030;51.980;5.646;2023-05-10T01:50:18;17.1;71.0
78696;SHT31;68030;51.980;5.646;2023-05-10T01:52:53;17.1;71.1
78696;SHT31;68030;51.980;5.646;2023-05-10T01:55:27;17.1;70.9
78696;SHT31;68030;51.980;5.646;2023-05-10T01:58:02;17.1;71.0
78696;SHT31;68030;51.980;5.646;2023-05-10T02:00:34;17.1;71.0
78696;SHT31;68030;51.980;5.646;2023-05-10T02:03:08;17.1;71.2
78696;SHT31;68030;51.980;5.646;2023-05-10T02:05:40;17.1;71.0
78696;SHT31;68030;51.980;5.646;2023-05-10T02:08:14;17.1;70.9
78696;SHT31;68030;51.980;5.646;2023-05-10T02:10:45;17.1;70.9
78696;SHT31;68030;51.980;5.646;2023-05-10T02:13:16;17.1;71.0
78696;SHT31;68030;51.980;5.646;2023-05-10T02:15:48;17.1;70.8
78696;SHT31;68030;51.980;5.646;2023-05-10T02:18:19;17.1;71.0
78696;SHT31;68030;51.980;5.646;2023-05-10T02:20:50;17.1;70.6
78696;SHT31;68030;51.980;5.646;2023-05-10T02:23:23;17.1;70.3
78696;SHT31;68030;51.980;5.646;2023-05-10T02:25:55;17.1;70.2
78696;SHT31;68030;51.980;5.646;2023-05-10T02:28:27;17.1;69.9
78696;SHT31;68030;51.980;5.646;2023-05-10T02:30:58;17.1;69.7
78696;SHT31;68030;51.980;5.646;2023-05-10T02:33:31;17.0;70.0
78696;SHT31;68030;51.980;5.646;2023-05-10T02:36:02;17.0;69.9
78696;SHT31;68030;51.980;5.646;2023-05-10T02:38:35;17.0;69.8
78696;SHT31;68030;51.980;5.646;2023-05-10T02:41:08;17.0;70.0
78696;SHT31;68030;51.980;5.646;2023-05-10T02:43:40;17.0;70.0
78696;SHT31;68030;51.980;5.646;2023-05-10T02:46:11;17.0;69.7
78696;SHT31;68030;51.980;5.646;2023-05-10T02:48:41;17.0;69.8
78696;SHT31;68030;51.980;5.646;2023-05-10T02:51:12;17.0;69.2
78696;SHT31;68030;51.980;5.646;2023-05-10T02:53:48;17.0;69.6
78696;SHT31;68030;51.980;5.646;2023-05-10T02:56:25;17.0;69.1
78696;SHT31;68030;51.980;5.646;2023-05-10T02:58:55;17.0;68.6
78696;SHT31;68030;51.980;5.646;2023-05-10T03:01:25;16.9;68.3
78696;SHT31;68030;51.980;5.646;2023-05-10T03:03:56;16.9;68.7
78696;SHT31;68030;51.980;5.646;2023-05-10T03:06:26;16.9;68.9
78696;SHT31;68030;51.980;5.646;2023-05-10T03:08:56;16.9;68.8
78696;SHT31;68030;51.980;5.646;2023-05-10T03:11:39;16.9;68.6
78696;SHT31;68030;51.980;5.646;2023-05-10T03:14:28;16.9;68.9
78696;SHT31;68030;51.980;5.646;2023-05-10T03:17:09;16.9;68.6
78696;SHT31;68030;51.980;5.646;2023-05-10T03:19:49;16.9;68.7
78696;SHT31;68030;51.980;5.646;2023-05-10T03:22:25;16.9;68.6
78696;SHT31;68030;51.980;5.646;2023-05-10T03:24:56;16.9;69.1
78696;SHT31;68030;51.980;5.646;2023-05-10T03:27:28;16.9;69.3
78696;SHT31;68030;51.980;5.646;2023-05-10T03:30:00;16.8;69.6
78696;SHT31;68030;51.980;5.646;2023-05-10T03:32:31;16.8;69.2
78696;SHT31;68030;51.980;5.646;2023-05-10T03:35:06;16.8;69.5
78696;SHT31;68030;51.980;5.646;2023-05-10T03:37:36;16.8;69.1
78696;SHT31;68030;51.980;5.646;2023-05-10T03:40:07;16.8;68.9
78696;SHT31;68030;51.980;5.646;2023-05-10T03:42:37;16.8;69.3
78696;SHT31;68030;51.980;5.646;2023-05-10T03:45:08;16.8;69.4
78696;SHT31;68030;51.980;5.646;2023-05-10T03:47:38;16.8;69.4
78696;SHT31;68030;51.980;5.646;2023-05-10T03:50:09;16.8;69.4
78696;SHT31;68030;51.980;5.646;2023-05-10T03:52:39;16.8;69.6
78696;SHT31;68030;51.980;5.646;2023-05-10T03:55:09;16.8;69.0
78696;SHT31;68030;51.980;5.646;2023-05-10T03:57:39;16.8;69.2
78696;SHT31;68030;51.980;5.646;2023-05-10T04:00:09;16.8;69.4
78696;SHT31;68030;51.980;5.646;2023-05-10T04:02:39;16.8;69.6
78696;SHT31;68030;51.980;5.646;2023-05-10T04:05:10;16.8;69.5
78696;SHT31;68030;51.980;5.646;2023-05-10T04:07:39;16.8;69.7
78696;SHT31;68030;51.980;5.646;2023-05-10T04:10:10;16.8;69.7
78696;SHT31;68030;51.980;5.646;2023-05-10T04:12:40;16.8;69.6
78696;SHT31;68030;51.980;5.646;2023-05-10T04:15:12;16.8;69.8
78696;SHT31;68030;51.980;5.646;2023-05-10T04:17:42;16.7;69.5
78696;SHT31;68030;51.980;5.646;2023-05-10T04:20:13;16.7;69.3
78696;SHT31;68030;51.980;5.646;2023-05-10T04:22:43;16.7;69.6
78696;SHT31;68030;51.980;5.646;2023-05-10T04:25:12;16.7;69.5
78696;SHT31;68030;51.980;5.646;2023-05-10T04:27:42;16.7;69.1
78696;SHT31;68030;51.980;5.646;2023-05-10T04:30:12;16.7;69.2
78696;SHT31;68030;51.980;5.646;2023-05-10T04:32:42;16.7;69.8
78696;SHT31;68030;51.980;5.646;2023-05-10T04:35:12;16.7;69.4
78696;SHT31;68030;51.980;5.646;2023-05-10T04:37:42;16.7;69.7
78696;SHT31;68030;51.980;5.646;2023-05-10T04:40:15;16.8;69.8
78696;SHT31;68030;51.980;5.646;2023-05-10T04:42:44;16.8;69.9
78696;SHT31;68030;51.980;5.646;2023-05-10T04:45:14;16.8;69.2
78696;SHT31;68030;51.980;5.646;2023-05-10T04:47:44;16.8;69.0
78696;SHT31;68030;51.980;5.646;2023-05-10T04:50:14;16.8;69.4
78696;SHT31;68030;51.980;5.646;2023-05-10T04:52:43;16.8;69.6
78696;SHT31;68030;51.980;5.646;2023-05-10T04:55:13;16.8;69.9
78696;SHT31;68030;51.980;5.646;2023-05-10T04:57:42;16.8;69.6
78696;SHT31;68030;51.980;5.646;2023-05-10T05:00:13;16.9;69.1
78696;SHT31;68030;51.980;5.646;2023-05-10T05:02:45;16.9;69.5
78696;SHT31;68030;51.980;5.646;2023-05-10T05:05:15;16.9;69.5
78696;SHT31;68030;51.980;5.646;2023-05-10T05:07:44;16.9;69.2
78696;SHT31;68030;51.980;5.646;2023-05-10T05:10:14;16.9;69.1
78696;SHT31;68030;51.980;5.646;2023-05-10T05:12:43;17.0;69.2
78696;SHT31;68030;51.980;5.646;2023-05-10T05:15:13;17.0;69.5
78696;SHT31;68030;51.980;5.646;2023-05-10T05:17:44;17.0;68.6
78696;SHT31;68030;51.980;5.646;2023-05-10T05:20:16;17.0;68.5
78696;SHT31;68030;51.980;5.646;2023-05-10T05:22:46;17.0;68.2
78696;SHT31;68030;51.980;5.646;2023-05-10T05:25:15;17.1;68.4
78696;SHT31;68030;51.980;5.646;2023-05-10T05:27:47;17.1;68.7
78696;SHT31;68030;51.980;5.646;2023-05-10T05:30:17;17.1;68.9
78696;SHT31;68030;51.980;5.646;2023-05-10T05:32:48;17.1;69.0
78696;SHT31;68030;51.980;5.646;2023-05-10T05:35:18;17.1;68.9
78696;SHT31;68030;51.980;5.646;2023-05-10T05:37:48;17.1;68.6
78696;SHT31;68030;51.980;5.646;2023-05-10T05:40:17;17.2;68.7
78696;SHT31;68030;51.980;5.646;2023-05-10T05:42:47;17.2;68.4
78696;SHT31;68030;51.980;5.646;2023-05-10T05:45:17;17.2;67.9
78696;SHT31;68030;51.980;5.646;2023-05-10T05:47:49;17.2;67.9
78696;SHT31;68030;51.980;5.646;2023-05-10T05:50:19;17.2;68.0
78696;SHT31;68030;51.980;5.646;2023-05-10T05:52:49;17.2;68.1
78696;SHT31;68030;51.980;5.646;2023-05-10T05:55:18;17.2;68.3
78696;SHT31;68030;51.980;5.646;2023-05-10T05:57:48;17.2;68.4
78696;SHT31;68030;51.980;5.646;2023-05-10T06:00:18;17.2;68.1
78696;SHT31;68030;51.980;5.646;2023-05-10T06:02:48;17.2;68.4
78696;SHT31;68030;51.980;5.646;2023-05-10T06:05:18;17.2;68.4
78696;SHT31;68030;51.980;5.646;2023-05-10T06:07:48;17.3;68.3
78696;SHT31;68030;51.980;5.646;2023-05-10T06:10:18;17.3;68.9
78696;SHT31;68030;51.980;5.646;2023-05-10T06:12:47;17.3;68.3
78696;SHT31;68030;51.980;5.646;2023-05-10T06:15:17;17.3;68.1
78696;SHT31;68030;51.980;5.646;2023-05-10T06:17:47;17.3;67.7
78696;SHT31;68030;51.980;5.646;2023-05-10T06:20:17;17.3;68.1
78696;SHT31;68030;51.980;5.646;2023-05-10T06:22:47;17.4;68.4
78696;SHT31;68030;51.980;5.646;2023-05-10T06:25:17;17.4;68.3
78696;SHT31;68030;51.980;5.646;2023-05-10T06:27:49;17.4;67.7
78696;SHT31;68030;51.980;5.646;2023-05-10T06:30:23;17.4;67.8
78696;SHT31;68030;51.980;5.646;2023-05-10T06:32:55;17.5;67.9
78696;SHT31;68030;51.980;5.646;2023-05-10T06:35:24;17.5;68.1
78696;SHT31;68030;51.980;5.646;2023-05-10T06:37:54;17.5;67.7
78696;SHT31;68030;51.980;5.646;2023-05-10T06:40:26;17.5;67.9
78696;SHT31;68030;51.980;5.646;2023-05-10T06:42:56;17.5;68.3
78696;SHT31;68030;51.980;5.646;2023-05-10T06:45:25;17.5;68.3
78696;SHT31;68030;51.980;5.646;2023-05-10T06:47:55;17.5;67.9
78696;SHT31;68030;51.980;5.646;2023-05-10T06:50:24;17.5;68.1
78696;SHT31;68030;51.980;5.646;2023-05-10T06:52:55;17.5;68.2
78696;SHT31;68030;51.980;5.646;2023-05-10T06:55:26;17.5;68.0
78696;SHT31;68030;51.980;5.646;2023-05-10T06:57:56;17.5;68.0
78696;SHT31;68030;51.980;5.646;2023-05-10T07:00:27;17.5;68.2
78696;SHT31;68030;51.980;5.646;2023-05-10T07:02:57;17.5;68.0
78696;SHT31;68030;51.980;5.646;2023-05-10T07:05:26;17.5;67.8
78696;SHT31;68030;51.980;5.646;2023-05-10T07:07:57;17.5;68.5
78696;SHT31;68030;51.980;5.646;2023-05-10T07:10:27;17.5;68.3
78696;SHT31;68030;51.980;5.646;2023-05-10T07:12:57;17.5;68.2
78696;SHT31;68030;51.980;5.646;2023-05-10T07:15:27;17.5;68.5
78696;SHT31;68030;51.980;5.646;2023-05-10T07:17:57;17.5;68.2
78696;SHT31;68030;51.980;5.646;2023-05-10T07:20:27;17.5;67.7
78696;SHT31;68030;51.980;5.646;2023-05-10T07:22:57;17.6;67.1
78696;SHT31;68030;51.980;5.646;2023-05-10T07:25:26;17.6;67.0
78696;SHT31;68030;51.980;5.646;2023-05-10T07:27:56;17.6;67.1
78696;SHT31;68030;51.980;5.646;2023-05-10T07:30:26;17.7;67.0
78696;SHT31;68030;51.980;5.646;2023-05-10T07:32:56;17.7;66.7
78696;SHT31;68030;51.980;5.646;2023-05-10T07:35:26;17.8;66.6
78696;SHT31;68030;51.980;5.646;2023-05-10T07:37:56;17.8;65.9
78696;SHT31;68030;51.980;5.646;2023-05-10T07:40:25;17.9;66.2
78696;SHT31;68030;51.980;5.646;2023-05-10T07:42:55;18.0;66.7
78696;SHT31;68030;51.980;5.646;2023-05-10T07:45:25;18.1;65.9
78696;SHT31;68030;51.980;5.646;2023-05-10T07:47:55;18.2;64.6
78696;SHT31;68030;51.980;5.646;2023-05-10T07:50:26;18.3;63.7
78696;SHT31;68030;51.980;5.646;2023-05-10T07:52:55;18.3;63.0
78696;SHT31;68030;51.980;5.646;2023-05-10T07:55:25;18.3;63.4
78696;SHT31;68030;51.980;5.646;2023-05-10T07:57:55;18.3;63.5
78696;SHT31;68030;51.980;5.646;2023-05-10T08:00:24;18.3;62.9
78696;SHT31;68030;51.980;5.646;2023-05-10T08:02:54;18.3;62.7
78696;SHT31;68030;51.980;5.646;2023-05-10T08:05:23;18.3;61.4
78696;SHT31;68030;51.980;5.646;2023-05-10T08:07:53;18.3;60.9
78696;SHT31;68030;51.980;5.646;2023-05-10T08:10:24;18.3;60.8
78696;SHT31;68030;51.980;5.646;2023-05-10T08:12:54;18.3;60.8
78696;SHT31;68030;51.980;5.646;2023-05-10T08:15:23;18.2;61.3
78696;SHT31;68030;51.980;5.646;2023-05-10T08:17:53;18.2;61.6
78696;SHT31;68030;51.980;5.646;2023-05-10T08:20:25;18.2;60.7
78696;SHT31;68030;51.980;5.646;2023-05-10T08:22:55;18.2;61.7
78696;SHT31;68030;51.980;5.646;2023-05-10T08:25:24;18.2;59.6
78696;SHT31;68030;51.980;5.646;2023-05-10T08:27:56;18.2;60.4
78696;SHT31;68030;51.980;5.646;2023-05-10T08:30:25;18.2;60.8
78696;SHT31;68030;51.980;5.646;2023-05-10T08:32:55;18.3;61.3
78696;SHT31;68030;51.980;5.646;2023-05-10T08:35:25;18.4;61.0
78696;SHT31;68030;51.980;5.646;2023-05-10T08:37:55;18.4;59.4
78696;SHT31;68030;51.980;5.646;2023-05-10T08:40:26;18.5;60.0
78696;SHT31;68030;51.980;5.646;2023-05-10T08:43:04;18.6;58.9
78696;SHT31;68030;51.980;5.646;2023-05-10T08:45:37;18.7;58.6
78696;SHT31;68030;51.980;5.646;2023-05-10T08:48:09;18.8;57.8
78696;SHT31;68030;51.980;5.646;2023-05-10T08:50:41;18.9;57.3
78696;SHT31;68030;51.980;5.646;2023-05-10T08:53:13;19.0;56.7
78696;SHT31;68030;51.980;5.646;2023-05-10T08:55:43;19.0;56.1
78696;SHT31;68030;51.980;5.646;2023-05-10T08:58:15;19.1;57.0
78696;SHT31;68030;51.980;5.646;2023-05-10T09:00:49;19.2;56.4
78696;SHT31;68030;51.980;5.646;2023-05-10T09:03:20;19.2;55.5
78696;SHT31;68030;51.980;5.646;2023-05-10T09:05:49;19.3;55.7
78696;SHT31;68030;51.980;5.646;2023-05-10T09:08:20;19.3;56.2
78696;SHT31;68030;51.980;5.646;2023-05-10T09:10:54;19.4;56.2
78696;SHT31;68030;51.980;5.646;2023-05-10T09:13:24;19.4;55.7
78696;SHT31;68030;51.980;5.646;2023-05-10T09:15:54;19.4;56.4
78696;SHT31;68030;51.980;5.646;2023-05-10T09:18:24;19.4;55.8
78696;SHT31;68030;51.980;5.646;2023-05-10T09:20:56;19.4;55.8
78696;SHT31;68030;51.980;5.646;2023-05-10T09:23:26;19.4;55.8
78696;SHT31;68030;51.980;5.646;2023-05-10T09:26:07;19.4;55.7
78696;SHT31;68030;51.980;5.646;2023-05-10T09:28:53;19.4;55.5
78696;SHT31;68030;51.980;5.646;2023-05-10T09:31:24;19.4;56.1
78696;SHT31;68030;51.980;5.646;2023-05-10T09:33:54;19.4;55.9
78696;SHT31;68030;51.980;5.646;2023-05-10T09:36:23;19.4;56.6
78696;SHT31;68030;51.980;5.646;2023-05-10T09:38:53;19.5;56.6
78696;SHT31;68030;51.980;5.646;2023-05-10T09:41:24;19.5;55.9
78696;SHT31;68030;51.980;5.646;2023-05-10T09:43:56;19.5;55.6
78696;SHT31;68030;51.980;5.646;2023-05-10T09:46:26;19.5;56.2
78696;SHT31;68030;51.980;5.646;2023-05-10T09:48:55;19.6;55.3
78696;SHT31;68030;51.980;5.646;2023-05-10T09:51:25;19.6;56.0
78696;SHT31;68030;51.980;5.646;2023-05-10T09:54:11;19.6;56.1
78696;SHT31;68030;51.980;5.646;2023-05-10T09:56:43;19.6;55.3
78696;SHT31;68030;51.980;5.646;2023-05-10T09:59:12;19.6;55.0
78696;SHT31;68030;51.980;5.646;2023-05-10T10:01:52;19.6;55.7
78696;SHT31;68030;51.980;5.646;2023-05-10T10:04:22;19.6;55.5
78696;SHT31;68030;51.980;5.646;2023-05-10T10:07:03;19.6;55.3
78696;SHT31;68030;51.980;5.646;2023-05-10T10:09:34;19.6;56.3
78696;SHT31;68030;51.980;5.646;2023-05-10T10:12:04;19.5;56.4
78696;SHT31;68030;51.980;5.646;2023-05-10T10:14:34;19.5;55.5
78696;SHT31;68030;51.980;5.646;2023-05-10T10:17:06;19.5;55.8
78696;SHT31;68030;51.980;5.646;2023-05-10T10:19:37;19.5;55.4
78696;SHT31;68030;51.980;5.646;2023-05-10T10:22:06;19.5;56.0
78696;SHT31;68030;51.980;5.646;2023-05-10T10:24:38;19.6;54.6
78696;SHT31;68030;51.980;5.646;2023-05-10T10:27:23;19.6;55.8
78696;SHT31;68030;51.980;5.646;2023-05-10T10:30:03;19.6;55.7
78696;SHT31;68030;51.980;5.646;2023-05-10T10:32:50;19.6;55.3
78696;SHT31;68030;51.980;5.646;2023-05-10T10:35:24;19.7;54.9
78696;SHT31;68030;51.980;5.646;2023-05-10T10:37:55;19.7;55.6
78696;SHT31;68030;51.980;5.646;2023-05-10T10:40:25;19.8;54.2
78696;SHT31;68030;51.980;5.646;2023-05-10T10:42:56;19.8;54.7
78696;SHT31;68030;51.980;5.646;2023-05-10T10:45:27;19.8;54.9
78696;SHT31;68030;51.980;5.646;2023-05-10T10:48:22;19.8;55.7
78696;SHT31;68030;51.980;5.646;2023-05-10T10:50:57;19.8;54.3
78696;SHT31;68030;51.980;5.646;2023-05-10T10:53:28;19.8;54.5
78696;SHT31;68030;51.980;5.646;2023-05-10T10:56:05;19.7;55.8
78696;SHT31;68030;51.980;5.646;2023-05-10T10:58:38;19.7;55.5
78696;SHT31;68030;51.980;5.646;2023-05-10T11:01:16;19.7;55.9
78696;SHT31;68030;51.980;5.646;2023-05-10T11:04:19;19.7;55.5
78696;SHT31;68030;51.980;5.646;2023-05-10T11:06:49;19.7;56.3
78696;SHT31;68030;51.980;5.646;2023-05-10T11:09:19;19.7;56.2
78696;SHT31;68030;51.980;5.646;2023-05-10T11:11:54;19.7;56.5
78696;SHT31;68030;51.980;5.646;2023-05-10T11:14:26;19.7;56.1
78696;SHT31;68030;51.980;5.646;2023-05-10T11:16:55;19.8;56.0
78696;SHT31;68030;51.980;5.646;2023-05-10T11:19:27;19.8;55.8
78696;SHT31;68030;51.980;5.646;2023-05-10T11:22:13;19.8;56.4
78696;SHT31;68030;51.980;5.646;2023-05-10T11:24:56;19.9;55.9
78696;SHT31;68030;51.980;5.646;2023-05-10T11:27:26;19.9;56.6
78696;SHT31;68030;51.980;5.646;2023-05-10T11:29:58;20.0;55.9
78696;SHT31;68030;51.980;5.646;2023-05-10T11:32:28;20.0;55.3
78696;SHT31;68030;51.980;5.646;2023-05-10T11:34:58;20.1;55.5
78696;SHT31;68030;51.980;5.646;2023-05-10T11:37:30;20.2;54.2
78696;SHT31;68030;51.980;5.646;2023-05-10T11:40:01;20.2;54.4
78696;SHT31;68030;51.980;5.646;2023-05-10T11:42:31;20.3;54.0
78696;SHT31;68030;51.980;5.646;2023-05-10T11:45:02;20.3;52.9
78696;SHT31;68030;51.980;5.646;2023-05-10T11:47:32;20.3;52.9
78696;SHT31;68030;51.980;5.646;2023-05-10T11:50:03;20.3;53.2
78696;SHT31;68030;51.980;5.646;2023-05-10T11:52:37;20.4;53.6
78696;SHT31;68030;51.980;5.646;2023-05-10T11:55:07;20.4;53.3
78696;SHT31;68030;51.980;5.646;2023-05-10T11:57:39;20.5;53.2
78696;SHT31;68030;51.980;5.646;2023-05-10T12:00:14;20.6;52.8
78696;SHT31;68030;51.980;5.646;2023-05-10T12:02:46;20.7;53.1
78696;SHT31;68030;51.980;5.646;2023-05-10T12:05:16;20.7;52.3
78696;SHT31;68030;51.980;5.646;2023-05-10T12:07:46;20.8;52.3
78696;SHT31;68030;51.980;5.646;2023-05-10T12:10:17;20.9;52.7
78696;SHT31;68030;51.980;5.646;2023-05-10T12:12:54;20.9;52.9
78696;SHT31;68030;51.980;5.646;2023-05-10T12:15:27;21.0;51.7
78696;SHT31;68030;51.980;5.646;2023-05-10T12:17:57;21.0;53.0
78696;SHT31;68030;51.980;5.646;2023-05-10T12:20:29;21.1;51.2
78696;SHT31;68030;51.980;5.646;2023-05-10T12:22:59;21.2;51.9
78696;SHT31;68030;51.980;5.646;2023-05-10T12:25:33;21.3;51.9
78696;SHT31;68030;51.980;5.646;2023-05-10T12:28:06;21.4;51.7
78696;SHT31;68030;51.980;5.646;2023-05-10T12:30:37;21.5;51.4
78696;SHT31;68030;51.980;5.646;2023-05-10T12:33:11;21.6;49.5
78696;SHT31;68030;51.980;5.646;2023-05-10T12:35:47;21.7;51.1
78696;SHT31;68030;51.980;5.646;2023-05-10T12:38:28;21.7;50.0
78696;SHT31;68030;51.980;5.646;2023-05-10T12:41:00;21.8;50.0
78696;SHT31;68030;51.980;5.646;2023-05-10T12:43:30;21.9;50.0
78696;SHT31;68030;51.980;5.646;2023-05-10T12:46:04;21.9;50.1
78696;SHT31;68030;51.980;5.646;2023-05-10T12:48:33;21.9;49.4
78696;SHT31;68030;51.980;5.646;2023-05-10T12:51:04;21.9;49.5
78696;SHT31;68030;51.980;5.646;2023-05-10T12:53:37;21.9;50.1
78696;SHT31;68030;51.980;5.646;2023-05-10T12:56:08;21.9;49.5
78696;SHT31;68030;51.980;5.646;2023-05-10T12:58:38;21.9;49.9
78696;SHT31;68030;51.980;5.646;2023-05-10T13:01:08;21.9;51.0
78696;SHT31;68030;51.980;5.646;2023-05-10T13:03:39;21.8;51.4
78696;SHT31;68030;51.980;5.646;2023-05-10T13:06:10;21.7;51.5
78696;SHT31;68030;51.980;5.646;2023-05-10T13:08:40;21.6;52.5
78696;SHT31;68030;51.980;5.646;2023-05-10T13:11:10;21.5;52.9
78696;SHT31;68030;51.980;5.646;2023-05-10T13:13:44;21.3;53.4
78696;SHT31;68030;51.980;5.646;2023-05-10T13:16:13;21.2;53.9
78696;SHT31;68030;51.980;5.646;2023-05-10T13:18:43;21.0;54.6
78696;SHT31;68030;51.980;5.646;2023-05-10T13:21:12;20.9;55.1
78696;SHT31;68030;51.980;5.646;2023-05-10T13:23:42;20.8;55.6
78696;SHT31;68030;51.980;5.646;2023-05-10T13:26:11;20.6;56.4
78696;SHT31;68030;51.980;5.646;2023-05-10T13:28:41;20.5;56.8
78696;SHT31;68030;51.980;5.646;2023-05-10T13:31:10;20.3;57.9
78696;SHT31;68030;51.980;5.646;2023-05-10T13:33:40;20.2;59.8
78696;SHT31;68030;51.980;5.646;2023-05-10T13:36:10;20.0;60.6
78696;SHT31;68030;51.980;5.646;2023-05-10T13:38:39;19.9;61.5
78696;SHT31;68030;51.980;5.646;2023-05-10T13:41:09;19.7;62.2
78696;SHT31;68030;51.980;5.646;2023-05-10T13:43:39;19.6;63.5
78696;SHT31;68030;51.980;5.646;2023-05-10T13:46:08;19.4;64.3
78696;SHT31;68030;51.980;5.646;2023-05-10T13:48:38;19.3;63.4
78696;SHT31;68030;51.980;5.646;2023-05-10T13:51:07;19.2;61.9
78696;SHT31;68030;51.980;5.646;2023-05-10T13:53:37;19.1;62.5
78696;SHT31;68030;51.980;5.646;2023-05-10T13:56:07;19.0;62.3
78696;SHT31;68030;51.980;5.646;2023-05-10T13:58:36;18.8;62.7
78696;SHT31;68030;51.980;5.646;2023-05-10T14:01:06;18.7;62.9
78696;SHT31;68030;51.980;5.646;2023-05-10T14:03:36;18.6;63.9
78696;SHT31;68030;51.980;5.646;2023-05-10T14:06:05;18.5;65.3
78696;SHT31;68030;51.980;5.646;2023-05-10T14:08:38;18.4;66.5
78696;SHT31;68030;51.980;5.646;2023-05-10T14:11:08;18.3;66.4
78696;SHT31;68030;51.980;5.646;2023-05-10T14:13:38;18.2;67.0
78696;SHT31;68030;51.980;5.646;2023-05-10T14:16:08;18.2;66.9
78696;SHT31;68030;51.980;5.646;2023-05-10T14:18:38;18.2;68.1
78696;SHT31;68030;51.980;5.646;2023-05-10T14:21:08;18.1;67.8
78696;SHT31;68030;51.980;5.646;2023-05-10T14:23:38;18.1;67.0
78696;SHT31;68030;51.980;5.646;2023-05-10T14:26:08;18.1;66.9
78696;SHT31;68030;51.980;5.646;2023-05-10T14:28:39;18.1;66.1
78696;SHT31;68030;51.980;5.646;2023-05-10T14:31:09;18.0;65.9
78696;SHT31;68030;51.980;5.646;2023-05-10T14:33:39;18.0;65.2
78696;SHT31;68030;51.980;5.646;2023-05-10T14:36:11;18.0;66.1
78696;SHT31;68030;51.980;5.646;2023-05-10T14:38:41;18.0;67.3
78696;SHT31;68030;51.980;5.646;2023-05-10T14:41:11;18.0;67.5
78696;SHT31;68030;51.980;5.646;2023-05-10T14:43:44;18.0;66.8
78696;SHT31;68030;51.980;5.646;2023-05-10T14:46:13;18.0;66.9
78696;SHT31;68030;51.980;5.646;2023-05-10T14:48:43;18.0;65.5
78696;SHT31;68030;51.980;5.646;2023-05-10T14:51:13;18.1;65.4
78696;SHT31;68030;51.980;5.646;2023-05-10T14:53:43;18.1;65.5
78696;SHT31;68030;51.980;5.646;2023-05-10T14:56:13;18.1;65.6
78696;SHT31;68030;51.980;5.646;2023-05-10T14:58:42;18.2;67.1
78696;SHT31;68030;51.980;5.646;2023-05-10T15:01:12;18.2;65.8
78696;SHT31;68030;51.980;5.646;2023-05-10T15:03:42;18.3;66.3
78696;SHT31;68030;51.980;5.646;2023-05-10T15:06:14;18.4;67.8
78696;SHT31;68030;51.980;5.646;2023-05-10T15:08:44;18.5;67.6
78696;SHT31;68030;51.980;5.646;2023-05-10T15:11:14;18.5;67.4
78696;SHT31;68030;51.980;5.646;2023-05-10T15:13:43;18.6;64.3
78696;SHT31;68030;51.980;5.646;2023-05-10T15:16:13;18.7;64.5
78696;SHT31;68030;51.980;5.646;2023-05-10T15:18:43;18.7;64.1
78696;SHT31;68030;51.980;5.646;2023-05-10T15:21:12;18.7;64.4
78696;SHT31;68030;51.980;5.646;2023-05-10T15:23:42;18.7;66.0
78696;SHT31;68030;51.980;5.646;2023-05-10T15:26:12;18.8;66.2
78696;SHT31;68030;51.980;5.646;2023-05-10T15:28:41;18.8;65.5
78696;SHT31;68030;51.980;5.646;2023-05-10T15:31:11;18.9;64.5
78696;SHT31;68030;51.980;5.646;2023-05-10T15:33:42;19.0;63.6
78696;SHT31;68030;51.980;5.646;2023-05-10T15:36:12;19.1;64.4
78696;SHT31;68030;51.980;5.646;2023-05-10T15:38:42;19.2;65.1
78696;SHT31;68030;51.980;5.646;2023-05-10T15:41:11;19.3;62.3
78696;SHT31;68030;51.980;5.646;2023-05-10T15:43:41;19.5;62.3
78696;SHT31;68030;51.980;5.646;2023-05-10T15:46:10;19.8;59.7
78696;SHT31;68030;51.980;5.646;2023-05-10T15:48:40;20.0;58.7
78696;SHT31;68030;51.980;5.646;2023-05-10T15:51:09;20.1;60.6
78696;SHT31;68030;51.980;5.646;2023-05-10T15:53:39;20.2;59.0
78696;SHT31;68030;51.980;5.646;2023-05-10T15:56:11;20.3;57.9
78696;SHT31;68030;51.980;5.646;2023-05-10T15:58:40;20.4;58.7
78696;SHT31;68030;51.980;5.646;2023-05-10T16:01:11;20.5;57.6
78696;SHT31;68030;51.980;5.646;2023-05-10T16:03:41;20.5;57.8
78696;SHT31;68030;51.980;5.646;2023-05-10T16:06:11;20.6;57.0
78696;SHT31;68030;51.980;5.646;2023-05-10T16:08:41;20.5;57.2
78696;SHT31;68030;51.980;5.646;2023-05-10T16:11:10;20.5;57.5
78696;SHT31;68030;51.980;5.646;2023-05-10T16:13:40;20.5;59.1
78696;SHT31;68030;51.980;5.646;2023-05-10T16:16:09;20.4;58.6
78696;SHT31;68030;51.980;5.646;2023-05-10T16:18:39;20.4;58.1
78696;SHT31;68030;51.980;5.646;2023-05-10T16:21:09;20.3;59.0
78696;SHT31;68030;51.980;5.646;2023-05-10T16:23:39;20.3;59.1
78696;SHT31;68030;51.980;5.646;2023-05-10T16:26:09;20.3;58.8
78696;SHT31;68030;51.980;5.646;2023-05-10T16:28:40;20.2;57.9
78696;SHT31;68030;51.980;5.646;2023-05-10T16:31:10;20.3;57.8